Time;durP1;ratioP1;P1;durP2;ratioP2;P2;SDS_P1;SDS_P2;PMS_P1;PMS_P2;Temp;Humidity;BMP_temperature;BMP_pressure;BME280_temperature;BME280_humidity;BME280_pressure;Samples;Min_cycle;Max_cycle;Signal;HPM_P1;HPM_P2
2022/05/05 00:01:22;;;;;;;;;13.50;11.50;;;;;24.09;37.06;101635.31;5007811;28;45436;-76
2022/05/05 00:03:47;;;;;;;;;12.00;10.00;;;;;24.07;37.00;101632.78;4996844;28;45515;-76
2022/05/05 00:06:13;;;;;;;;;17.75;14.25;;;;;23.99;38.36;101632.78;5011184;28;46540;-76
2022/05/05 00:08:38;;;;;;;;;16.25;13.00;;;;;24.15;37.42;101632.75;5010542;28;45876;-76
2022/05/05 00:16:32;;;;;;;;;15.50;11.00;;;;;23.87;38.65;101628.72;5009982;28;45808;-74
2022/05/05 00:18:57;;;;;;;;;12.50;11.00;;;;;23.79;38.28;101644.91;5009817;28;45453;-75
2022/05/05 00:21:22;;;;;;;;;14.50;13.00;;;;;23.88;37.86;101636.66;5009461;28;45469;-75
2022/05/05 00:23:48;;;;;;;;;11.00;10.25;;;;;25.07;35.37;101635.94;5009976;28;45615;-75
2022/05/05 00:26:13;;;;;;;;;14.25;10.00;;;;;25.58;34.48;101640.72;5010820;28;46016;-75
2022/05/05 00:28:39;;;;;;;;;12.50;12.00;;;;;25.42;35.04;101638.09;5008981;28;46495;-75
2022/05/05 00:31:04;;;;;;;;;11.00;10.25;;;;;23.89;37.08;101648.28;5011010;28;45762;-75
2022/05/05 00:33:30;;;;;;;;;14.75;11.00;;;;;23.49;37.52;101649.91;5007313;28;45753;-75
2022/05/05 00:35:56;;;;;;;;;11.25;11.00;;;;;23.30;38.60;101638.56;5005494;28;45876;-75
2022/05/05 00:38:21;;;;;;;;;11.25;11.25;;;;;23.38;38.44;101646.69;4987061;28;45873;-75
2022/05/05 00:40:46;;;;;;;;;15.00;13.00;;;;;23.36;37.87;101648.69;5003605;28;45862;-75
2022/05/05 00:43:12;;;;;;;;;13.25;10.00;;;;;23.33;38.50;101643.63;5015771;28;45731;-75
2022/05/05 00:45:37;;;;;;;;;13.00;12.00;;;;;23.33;38.93;101630.16;5012618;28;45459;-75
2022/05/05 00:48:07;;;;;;;;;13.00;12.50;;;;;23.26;38.71;101635.34;5008201;28;45507;-75
2022/05/05 00:50:35;;;;;;;;;13.00;11.25;;;;;23.38;39.03;101644.84;5009657;28;46547;-75
2022/05/05 00:53:01;;;;;;;;;15.25;12.00;;;;;23.42;39.07;101653.41;4991384;28;45775;-75
2022/05/05 00:55:27;;;;;;;;;11.75;10.75;;;;;23.29;38.47;101645.81;5009451;28;46164;-75
2022/05/05 00:57:53;;;;;;;;;13.00;10.00;;;;;23.27;38.77;101647.81;5010036;28;45517;-75
2022/05/05 01:00:19;;;;;;;;;11.25;9.00;;;;;23.17;38.73;101647.13;5009755;28;45491;-75
2022/05/05 01:02:46;;;;;;;;;12.00;9.00;;;;;23.07;38.27;101649.94;4989007;28;45542;-75
2022/05/05 01:05:12;;;;;;;;;9.00;9.00;;;;;23.14;38.46;101650.13;4993722;28;46272;-75
2022/05/05 01:07:38;;;;;;;;;9.00;9.00;;;;;23.14;38.04;101642.03;5007780;28;45765;-75
2022/05/05 01:10:04;;;;;;;;;14.75;7.75;;;;;23.26;37.44;101639.91;5008675;28;45562;-75
2022/05/05 01:12:31;;;;;;;;;13.25;8.50;;;;;22.99;37.95;101655.31;5008716;28;46163;-74
2022/05/05 01:14:59;;;;;;;;;11.00;8.00;;;;;23.36;37.37;101656.78;5004584;28;45865;-75
2022/05/05 01:17:26;;;;;;;;;17.75;9.00;;;;;23.00;37.90;101653.47;4989237;28;46142;-75
2022/05/05 01:19:52;;;;;;;;;7.25;7.00;;;;;22.96;38.42;101665.53;5015307;28;45621;-75
2022/05/05 01:22:18;;;;;;;;;9.00;7.75;;;;;22.97;37.92;101651.06;4997172;28;45333;-74
2022/05/05 01:30:12;;;;;;;;;6.25;6.25;;;;;33.49;24.72;101639.19;5006587;28;45455;-74
2022/05/05 01:32:38;;;;;;;;;7.50;7.25;;;;;36.33;21.74;101627.66;5009104;28;45427;-74
2022/05/05 01:35:04;;;;;;;;;7.75;6.50;;;;;37.12;21.01;101629.25;4987792;28;47103;-74
2022/05/05 01:37:30;;;;;;;;;7.75;5.50;;;;;36.99;20.39;101634.06;5004584;28;45880;-74
2022/05/05 01:39:56;;;;;;;;;5.00;5.00;;;;;37.40;19.80;101623.53;5008471;28;45867;-74
2022/05/05 01:42:22;;;;;;;;;11.00;6.75;;;;;37.57;20.09;101632.50;5007326;28;45895;-75
2022/05/05 01:44:47;;;;;;;;;8.00;8.00;;;;;37.74;19.72;101629.66;5009901;28;45554;-74
2022/05/05 01:47:13;;;;;;;;;9.75;8.00;;;;;38.07;19.09;101637.66;5009021;28;45586;-74
2022/05/05 01:49:38;;;;;;;;;11.00;8.00;;;;;38.29;19.61;101634.78;4990962;28;45645;-74
2022/05/05 01:52:10;;;;;;;;;5.50;5.50;;;;;38.49;19.06;101632.13;5008506;28;45611;-74
2022/05/05 01:54:37;;;;;;;;;7.50;4.00;;;;;38.37;18.95;101631.50;5005657;28;46306;-74
2022/05/05 01:57:03;;;;;;;;;11.25;7.00;;;;;38.41;18.95;101631.81;5004611;28;45894;-74
2022/05/05 01:59:28;;;;;;;;;8.75;7.75;;;;;38.55;18.94;101636.59;5008333;28;46350;-74
2022/05/05 02:01:54;;;;;;;;;8.50;5.75;;;;;38.61;18.80;101634.69;4989300;28;45852;-75
2022/05/05 02:04:19;;;;;;;;;10.00;6.75;;;;;38.29;18.89;101636.69;4997719;28;48279;-74
2022/05/05 02:06:45;;;;;;;;;11.25;8.00;;;;;38.48;18.73;101633.22;5006210;28;45824;-74
2022/05/05 02:09:10;;;;;;;;;8.00;6.25;;;;;38.52;18.93;101639.06;5009091;28;45491;-74
2022/05/05 02:11:41;;;;;;;;;9.25;8.25;;;;;38.52;18.67;101641.81;5009158;28;45423;-74
2022/05/05 02:14:07;;;;;;;;;10.00;8.00;;;;;38.79;18.36;101642.50;5008443;28;45477;-74
2022/05/05 02:16:32;;;;;;;;;8.50;7.25;;;;;38.58;18.88;101639.94;5007438;28;45490;-74
2022/05/05 02:18:57;;;;;;;;;8.50;8.50;;;;;38.61;18.66;101642.97;5008303;28;46005;-74
2022/05/05 02:21:23;;;;;;;;;12.50;8.50;;;;;38.61;18.33;101640.22;5008825;28;45492;-74
2022/05/05 02:23:48;;;;;;;;;14.00;8.75;;;;;38.68;18.62;101640.00;5008466;28;46500;-74
2022/05/05 02:26:14;;;;;;;;;6.00;5.00;;;;;38.76;18.61;101633.94;5008689;28;45471;-74
2022/05/05 02:28:39;;;;;;;;;11.75;9.50;;;;;38.68;18.74;101638.06;5008114;28;45843;-74
2022/05/05 02:31:04;;;;;;;;;8.00;7.00;;;;;38.74;18.30;101631.44;5008322;28;45516;-74
2022/05/05 02:33:30;;;;;;;;;8.25;8.25;;;;;38.74;18.34;101636.97;4990337;28;46615;-74
2022/05/05 02:38:42;;;;;;;;;11.50;10.25;;;;;24.71;34.26;101651.75;5005295;28;45728;-74
2022/05/05 02:41:07;;;;;;;;;11.00;9.00;;;;;23.30;36.29;101658.28;5003689;28;45592;-74
2022/05/05 02:43:33;;;;;;;;;13.50;9.75;;;;;22.76;38.89;101660.41;5010649;28;46653;-74
2022/05/05 02:45:58;;;;;;;;;12.50;10.00;;;;;22.40;38.54;101651.56;5009583;28;45551;-74
2022/05/05 02:48:24;;;;;;;;;13.75;11.00;;;;;22.19;39.55;101653.81;5009959;28;46373;-74
2022/05/05 02:50:49;;;;;;;;;12.75;10.25;;;;;22.22;39.96;101658.84;5012216;28;45915;-74
2022/05/05 02:55:58;;;;;;;;;14.50;10.25;;;;;21.95;40.22;101654.41;5013062;28;45484;-74
2022/05/05 02:58:25;;;;;;;;;9.75;9.00;;;;;21.88;40.72;101660.56;4992775;28;45437;-74
2022/05/05 03:00:50;;;;;;;;;15.00;11.25;;;;;21.92;40.85;101659.25;5011790;28;46394;-75
2022/05/05 03:03:16;;;;;;;;;11.00;10.50;;;;;21.92;41.03;101656.56;5012980;28;45906;-75
2022/05/05 03:05:41;;;;;;;;;14.50;10.00;;;;;23.67;41.54;101660.56;5012766;28;46518;-74
2022/05/05 03:08:07;;;;;;;;;16.50;12.00;;;;;21.70;41.51;101657.03;5013404;28;45533;-74
2022/05/05 03:10:32;;;;;;;;;19.25;15.00;;;;;21.95;41.61;101654.41;5012088;28;46622;-75
2022/05/05 03:12:58;;;;;;;;;13.75;12.75;;;;;21.90;41.28;101661.25;5012083;28;45509;-75
2022/05/05 03:15:23;;;;;;;;;15.00;11.00;;;;;21.70;42.31;101671.31;5006599;28;45978;-75
2022/05/05 03:17:50;;;;;;;;;13.25;9.50;;;;;21.65;41.74;101652.97;5007818;28;46035;-74
2022/05/05 03:20:15;;;;;;;;;11.75;9.25;;;;;21.67;42.98;101665.41;5013211;28;45816;-75
2022/05/05 03:22:41;;;;;;;;;13.50;10.75;;;;;21.67;41.90;101660.88;4998921;28;48597;-74
2022/05/05 03:25:06;;;;;;;;;12.25;10.00;;;;;21.72;42.24;101665.78;5008025;28;45361;-75
2022/05/05 03:27:35;;;;;;;;;15.25;11.50;;;;;21.71;41.91;101648.81;5005988;28;45609;-74
2022/05/05 03:30:01;;;;;;;;;17.25;12.25;;;;;21.71;42.25;101656.03;5011485;28;45713;-75
2022/05/05 03:32:28;;;;;;;;;15.00;13.50;;;;;21.78;42.02;101655.25;5010972;28;46022;-75
2022/05/05 03:34:54;;;;;;;;;13.50;13.00;;;;;21.78;42.59;101657.09;5009473;28;45538;-75
2022/05/05 03:37:19;;;;;;;;;18.25;10.50;;;;;21.75;42.79;101652.91;5010924;28;45436;-75
2022/05/05 03:39:45;;;;;;;;;15.75;10.25;;;;;21.97;42.36;101647.06;4994221;28;46359;-75
2022/05/05 03:42:10;;;;;;;;;18.25;12.75;;;;;21.75;43.22;101658.28;5011130;28;45524;-75
2022/05/05 03:44:36;;;;;;;;;11.00;9.50;;;;;21.73;42.65;101656.72;5011869;28;45445;-74
2022/05/05 03:47:02;;;;;;;;;9.25;9.25;;;;;21.78;42.50;101678.63;5010677;28;45789;-75
2022/05/05 03:49:27;;;;;;;;;11.25;7.00;;;;;22.10;42.03;101662.81;5010046;28;45432;-75
2022/05/05 03:51:54;;;;;;;;;15.75;11.50;;;;;21.89;42.25;101670.31;5010492;28;46186;-75
2022/05/05 03:54:20;;;;;;;;;13.50;11.25;;;;;22.25;41.17;101661.25;5009533;28;46301;-75
2022/05/05 03:56:45;;;;;;;;;12.25;9.25;;;;;21.94;42.31;101673.41;4989654;28;45655;-75
2022/05/05 03:59:11;;;;;;;;;16.50;10.75;;;;;21.87;42.63;101658.88;4990158;28;45453;-75
2022/05/05 04:01:36;;;;;;;;;13.75;13.00;;;;;31.41;28.45;101638.88;5008823;28;47589;-75
2022/05/05 04:04:02;;;;;;;;;14.25;11.25;;;;;25.59;34.53;101665.88;5011007;28;45429;-75
2022/05/05 04:06:27;;;;;;;;;19.00;13.00;;;;;22.86;40.35;101670.22;4992842;28;46649;-75
2022/05/05 04:08:52;;;;;;;;;12.25;10.50;;;;;22.37;42.10;101668.06;5009754;28;45512;-75
2022/05/05 04:11:18;;;;;;;;;17.50;11.00;;;;;22.06;42.19;101672.19;5011544;28;45546;-75
2022/05/05 04:13:43;;;;;;;;;10.00;9.00;;;;;21.83;42.93;101665.56;5008719;28;46470;-75
2022/05/05 04:16:10;;;;;;;;;18.00;12.50;;;;;21.82;43.36;101675.47;4993974;28;45466;-74
2022/05/05 04:18:36;;;;;;;;;17.75;11.75;;;;;22.09;42.37;101666.50;5009660;28;45519;-75
2022/05/05 04:21:01;;;;;;;;;16.25;11.75;;;;;22.12;42.68;101678.81;4992964;28;47111;-75
2022/05/05 04:23:27;;;;;;;;;12.50;11.00;;;;;22.14;42.89;101668.72;5010396;28;46392;-75
2022/05/05 04:25:52;;;;;;;;;11.25;10.75;;;;;22.08;42.02;101672.88;5009087;28;45281;-74
2022/05/05 04:28:18;;;;;;;;;14.00;10.75;;;;;22.08;42.25;101672.03;5011222;28;45544;-75
2022/05/05 04:30:44;;;;;;;;;16.25;9.75;;;;;22.06;43.06;101682.09;5010464;28;45448;-75
2022/05/05 04:33:11;;;;;;;;;15.50;10.75;;;;;22.12;42.38;101678.81;4992879;28;45788;-74
2022/05/05 04:35:36;;;;;;;;;13.00;9.75;;;;;21.97;42.49;101683.84;5010356;28;45598;-75
2022/05/05 04:38:03;;;;;;;;;11.25;9.50;;;;;22.09;43.01;101688.03;4975917;28;45572;-75
2022/05/05 04:40:29;;;;;;;;;12.33;10.33;;;;;21.57;43.80;101692.38;4989351;28;45936;-75
2022/05/05 04:42:54;;;;;;;;;15.00;10.00;;;;;22.00;43.63;101700.56;4998135;28;45634;-75
2022/05/05 04:45:19;;;;;;;;;17.25;12.00;;;;;21.71;43.54;101694.53;5010514;28;45503;-75
2022/05/05 04:47:45;;;;;;;;;16.25;10.00;;;;;21.39;43.80;101686.97;5010467;28;45927;-75
2022/05/05 04:50:10;;;;;;;;;14.25;11.25;;;;;22.13;42.54;101685.84;5009900;28;46272;-75
2022/05/05 04:52:36;;;;;;;;;13.00;10.00;;;;;22.61;42.15;101688.91;4991997;28;45520;-75
2022/05/05 04:55:02;;;;;;;;;16.75;14.00;;;;;21.44;43.77;101702.63;5009667;28;45502;-75
2022/05/05 04:57:27;;;;;;;;;21.25;14.00;;;;;21.41;43.98;101693.00;5010184;28;45784;-75
2022/05/05 04:59:53;;;;;;;;;19.25;13.00;;;;;21.31;44.24;101699.44;4991879;28;47477;-75
2022/05/05 05:02:19;;;;;;;;;17.50;12.75;;;;;22.12;41.59;101709.25;5009557;28;45684;-74
2022/05/05 05:04:44;;;;;;;;;26.25;19.00;;;;;24.19;37.70;101690.78;4991438;28;45890;-75
2022/05/05 05:07:10;;;;;;;;;16.00;14.50;;;;;21.77;43.59;101704.66;5009887;28;45475;-74
2022/05/05 05:09:35;;;;;;;;;17.25;17.25;;;;;21.71;43.84;101704.44;5010022;28;45461;-75
2022/05/05 05:12:01;;;;;;;;;15.75;14.00;;;;;21.79;43.92;101715.25;5008464;28;45500;-74
2022/05/05 05:14:26;;;;;;;;;21.50;15.75;;;;;21.39;44.19;101716.53;5003789;28;45526;-74
2022/05/05 05:16:52;;;;;;;;;17.75;14.00;;;;;21.47;44.36;101716.63;4990517;28;45366;-75
2022/05/05 05:19:17;;;;;;;;;17.25;14.50;;;;;21.69;44.23;101720.72;4995035;28;46039;-74
2022/05/05 05:21:43;;;;;;;;;18.25;16.75;;;;;21.78;44.32;101717.09;4995351;28;45634;-74
2022/05/05 05:24:08;;;;;;;;;28.75;19.25;;;;;22.03;43.69;101731.69;4994048;28;45776;-75
2022/05/05 05:26:34;;;;;;;;;24.50;18.25;;;;;21.83;43.87;101719.34;4982635;28;45470;-74
2022/05/05 05:28:59;;;;;;;;;20.75;17.50;;;;;21.79;44.45;101728.72;5009475;28;45561;-75
2022/05/05 05:31:25;;;;;;;;;18.50;17.00;;;;;21.97;43.54;101722.38;5009937;28;45551;-75
2022/05/05 05:33:50;;;;;;;;;24.50;18.50;;;;;21.82;44.63;101725.72;5010224;28;46742;-75
2022/05/05 05:36:15;;;;;;;;;21.00;18.50;;;;;22.18;43.68;101735.53;5009299;28;45471;-75
2022/05/05 05:38:41;;;;;;;;;26.50;20.25;;;;;22.20;44.61;101738.91;5010369;28;45963;-75
2022/05/05 05:41:08;;;;;;;;;21.25;18.00;;;;;22.34;43.27;101745.56;5005974;28;46395;-75
2022/05/05 05:43:34;;;;;;;;;25.50;21.25;;;;;22.12;44.24;101740.69;5008547;28;45368;-75
2022/05/05 05:45:59;;;;;;;;;24.50;19.00;;;;;33.26;27.64;101713.84;5008748;28;45467;-75
2022/05/05 05:48:25;;;;;;;;;31.75;21.00;;;;;35.53;24.43;101693.91;5009192;28;45600;-75
2022/05/05 05:50:50;;;;;;;;;29.25;23.50;;;;;36.58;23.24;101703.44;5008922;28;45642;-75
2022/05/05 05:53:16;;;;;;;;;28.25;21.25;;;;;36.61;23.14;101705.66;5004833;28;45910;-75
2022/05/05 05:55:41;;;;;;;;;27.75;22.50;;;;;37.44;22.38;101705.41;5002526;28;45638;-75
2022/05/05 05:58:07;;;;;;;;;25.50;20.50;;;;;37.53;22.30;101708.53;5009832;28;46051;-75
2022/05/05 06:00:33;;;;;;;;;28.25;21.75;;;;;37.73;21.82;101703.25;5006733;28;45506;-75
2022/05/05 06:05:43;;;;;;;;;22.25;20.25;;;;;37.95;21.67;101705.13;5007958;28;45874;-75
2022/05/05 06:08:08;;;;;;;;;25.50;19.75;;;;;38.07;21.47;101717.66;4989641;28;46467;-75
2022/05/05 06:10:36;;;;;;;;;23.50;21.25;;;;;38.09;21.02;101700.84;5008708;28;45594;-75
2022/05/05 06:13:03;;;;;;;;;26.50;21.00;;;;;38.22;21.02;101711.44;5006885;28;45788;-75
2022/05/05 06:15:28;;;;;;;;;20.75;17.75;;;;;38.42;20.90;101713.53;4993146;28;45588;-74
2022/05/05 06:17:54;;;;;;;;;27.00;21.50;;;;;38.64;20.45;101710.63;5006585;28;45486;-75
2022/05/05 06:20:20;;;;;;;;;25.75;22.00;;;;;38.68;20.91;101717.31;5005856;28;45578;-75
2022/05/05 06:22:46;;;;;;;;;38.50;25.75;;;;;38.67;20.69;101718.41;5008257;28;45515;-74
2022/05/05 06:25:12;;;;;;;;;29.75;20.75;;;;;38.66;20.60;101720.31;5008910;28;45939;-75
2022/05/05 06:27:38;;;;;;;;;22.50;19.25;;;;;38.98;20.36;101727.69;5008305;28;46116;-75
2022/05/05 06:30:05;;;;;;;;;23.00;19.25;;;;;39.09;19.71;101723.88;5008192;28;45925;-75
2022/05/05 06:32:30;;;;;;;;;23.75;19.25;;;;;39.13;20.11;101733.31;5005449;28;45408;-75
2022/05/05 06:34:56;;;;;;;;;17.50;15.00;;;;;39.03;20.10;101736.84;5006798;28;45570;-75
2022/05/05 06:37:23;;;;;;;;;23.00;19.75;;;;;39.01;19.72;101738.22;5006427;28;45931;-75
2022/05/05 06:39:49;;;;;;;;;26.25;20.25;;;;;39.02;19.82;101734.34;5004334;28;45482;-75
2022/05/05 06:42:15;;;;;;;;;26.75;22.50;;;;;39.18;20.33;101733.31;4998888;28;45855;-75
2022/05/05 06:44:41;;;;;;;;;35.00;22.75;;;;;38.62;20.13;101743.19;5008613;28;46381;-75
2022/05/05 06:47:07;;;;;;;;;27.00;22.25;;;;;38.69;20.25;101739.13;5007056;28;46846;-75
2022/05/05 06:49:33;;;;;;;;;24.00;20.50;;;;;38.65;20.09;101751.78;5006133;28;45919;-75
2022/05/05 06:51:59;;;;;;;;;28.75;24.00;;;;;38.72;20.49;101744.09;5006370;28;45431;-75
2022/05/05 06:54:25;;;;;;;;;29.75;20.50;;;;;38.68;20.67;101750.44;5005815;28;45843;-75
2022/05/05 06:56:51;;;;;;;;;30.50;23.50;;;;;38.17;20.81;101755.53;5008292;28;45821;-75
2022/05/05 06:59:16;;;;;;;;;25.00;22.50;;;;;38.49;20.50;101750.00;4989078;28;45391;-75
2022/05/05 07:01:54;;;;;;;;;29.50;21.75;;;;;38.41;20.47;101737.53;4987636;28;45596;-75
2022/05/05 07:07:07;;;;;;;;;32.50;20.75;;;;;38.89;20.32;101758.56;5004642;28;45613;-75
2022/05/05 07:12:17;;;;;;;;;23.50;17.75;;;;;39.43;19.67;101754.69;4997059;28;45511;-76
2022/05/05 07:14:46;;;;;;;;;39.50;23.00;;;;;39.62;19.34;101755.88;5005939;28;45860;-75
2022/05/05 07:17:12;;;;;;;;;24.75;22.25;;;;;39.83;19.27;101757.59;5005563;28;45680;-76
2022/05/05 07:19:39;;;;;;;;;33.25;24.75;;;;;39.67;19.57;101761.41;5007788;28;45420;-75
2022/05/05 07:22:05;;;;;;;;;30.75;26.50;;;;;39.59;20.12;101771.09;5005168;28;45862;-76
2022/05/05 07:24:30;;;;;;;;;29.75;21.00;;;;;39.54;19.99;101773.81;5010002;28;45378;-76
2022/05/05 07:26:56;;;;;;;;;34.75;23.50;;;;;39.73;19.56;101776.06;5011241;28;46372;-76
2022/05/05 07:29:22;;;;;;;;;37.50;26.25;;;;;39.78;19.72;101773.34;5011354;28;45529;-76
2022/05/05 07:31:48;;;;;;;;;24.25;18.75;;;;;40.00;19.10;101765.63;5008774;28;45523;-76
2022/05/05 07:34:13;;;;;;;;;31.25;20.25;;;;;40.44;18.70;101774.25;5008819;28;45559;-76
2022/05/05 07:36:39;;;;;;;;;29.25;26.50;;;;;40.26;19.37;101778.41;5013521;28;45574;-76
2022/05/05 07:39:04;;;;;;;;;24.75;20.75;;;;;40.39;18.99;101777.03;5015420;28;45507;-75
2022/05/05 07:41:30;;;;;;;;;31.25;24.25;;;;;40.62;19.00;101781.97;5004209;28;45429;-75
2022/05/05 07:43:56;;;;;;;;;27.75;25.25;;;;;40.27;19.01;101773.72;5021987;28;45371;-76
2022/05/05 07:46:24;;;;;;;;;29.00;23.75;;;;;40.46;19.01;101788.66;5020427;28;47293;-77
2022/05/05 07:48:58;;;;;;;;;22.00;20.75;;;;;40.73;18.53;101772.59;5020733;28;45340;-76
2022/05/05 07:51:31;;;;;;;;;22.00;18.25;;;;;40.23;19.25;101783.66;5021952;28;45430;-76
2022/05/05 07:56:43;;;;;;;;;20.25;16.25;;;;;26.86;34.72;101822.34;5019047;28;45672;-76
2022/05/05 07:59:12;;;;;;;;;26.25;21.50;;;;;26.62;35.59;101816.09;5000842;28;45302;-76
2022/05/05 08:01:38;;;;;;;;;25.75;23.50;;;;;28.64;35.35;101817.31;4983882;28;45425;-76
2022/05/05 08:04:04;;;;;;;;;25.50;19.50;;;;;29.34;33.84;101800.91;5000471;28;45783;-76
2022/05/05 08:06:31;;;;;;;;;23.25;19.00;;;;;31.05;31.76;101808.63;4989534;28;47144;-76
2022/05/05 08:08:57;;;;;;;;;12.75;9.25;;;;;30.94;31.48;101809.28;4993576;28;45842;-76
2022/05/05 08:11:22;;;;;;;;;19.75;18.25;;;;;30.42;30.73;101805.47;5011835;28;45322;-76
2022/05/05 08:13:49;;;;;;;;;24.75;19.75;;;;;30.90;29.95;101797.13;5013086;28;46428;-76
2022/05/05 08:16:15;;;;;;;;;26.75;19.75;;;;;30.12;32.05;101806.91;4986810;28;47253;-76
2022/05/05 08:18:43;;;;;;;;;22.25;20.50;;;;;31.41;32.51;101799.94;5003181;28;45309;-76
2022/05/05 08:21:11;;;;;;;;;20.75;17.25;;;;;35.32;28.03;101800.91;5019060;28;45653;-76
2022/05/05 08:23:38;;;;;;;;;23.50;21.75;;;;;41.09;23.08;101787.16;5003444;28;45491;-76
2022/05/05 08:28:50;;;;;;;;;19.00;16.25;;;;;40.57;24.44;101803.31;5015147;28;45290;-76
2022/05/05 08:31:16;;;;;;;;;21.75;19.50;;;;;42.28;23.33;101789.84;5000071;28;45379;-76
2022/05/05 08:33:44;;;;;;;;;21.25;16.75;;;;;44.08;20.92;101802.22;5001281;28;45496;-76
2022/05/05 08:36:22;;;;;;;;;19.00;18.25;;;;;44.08;21.02;101800.28;5001082;28;45352;-76
2022/05/05 08:38:49;;;;;;;;;21.50;19.25;;;;;43.00;18.28;101807.53;5020780;28;45468;-76
2022/05/05 08:41:19;;;;;;;;;17.00;16.00;;;;;43.20;20.31;101798.16;5021061;28;45352;-76
2022/05/05 08:43:57;;;;;;;;;21.50;15.00;;;;;44.67;19.06;101795.94;5020644;28;45418;-76
2022/05/05 08:46:26;;;;;;;;;18.50;18.00;;;;;46.08;18.83;101796.84;5019385;28;46411;-76
2022/05/05 08:48:58;;;;;;;;;16.00;16.00;;;;;44.55;17.61;101801.19;5001369;28;45442;-76
2022/05/05 08:51:26;;;;;;;;;19.25;16.00;;;;;42.50;17.89;101815.25;5019681;28;45489;-76
2022/05/05 08:53:53;;;;;;;;;17.50;16.00;;;;;42.15;18.89;101805.25;5020420;28;45231;-76
2022/05/05 08:56:19;;;;;;;;;22.00;19.00;;;;;41.70;18.70;101811.09;5020212;28;46523;-76
2022/05/05 08:58:47;;;;;;;;;21.75;19.50;;;;;41.50;19.17;101819.47;5019767;28;45479;-76
2022/05/05 09:01:18;;;;;;;;;20.75;16.75;;;;;40.07;19.23;101804.94;5019645;28;45506;-76
2022/05/05 09:03:43;;;;;;;;;17.00;13.50;;;;;39.25;19.89;101805.72;5001916;28;45631;-76
2022/05/05 09:06:08;;;;;;;;;17.50;15.00;;;;;38.31;20.18;101825.75;5019294;28;45681;-76
2022/05/05 09:08:34;;;;;;;;;17.00;15.00;;;;;37.09;21.08;101826.16;5019864;28;45440;-76
2022/05/05 09:11:06;;;;;;;;;25.75;19.50;;;;;35.51;22.18;101819.69;5020300;28;45346;-76
2022/05/05 09:16:49;;;;;;;;;24.00;17.25;;;;;31.69;25.71;101832.44;5006548;28;46242;-76
2022/05/05 09:19:28;;;;;;;;;;;;;;;;;;;;;
2022/05/05 09:21:57;;;;;;;;;23.50;15.00;;;;;30.79;27.54;101833.22;5018344;28;69058;-75
2022/05/05 09:24:36;;;;;;;;;18.00;13.75;;;;;30.57;27.84;101824.41;5001746;28;45575;-76
2022/05/05 09:30:28;;;;;;;;;;;;;;;;;;;;;
2022/05/05 09:40:42;;;;;;;;;13.25;10.25;;;;;39.31;20.13;101812.97;4989387;28;46522;-77
2022/05/05 09:50:42;;;;;;;;;;;;;;;;;;;;;
2022/05/05 10:10:27;;;;;;;;;14.00;12.00;;;;;30.23;27.01;101833.53;4944440;28;45231;-76
2022/05/05 10:13:30;;;;;;;;;;;;;;;;;;;;;
2022/05/05 10:15:45;;;;;;;;;13.75;10.75;;;;;29.59;27.74;101820.31;4937657;28;46919;-78
2022/05/05 10:18:12;;;;;;;;;12.00;9.00;;;;;29.42;28.16;101829.00;4939830;28;45528;-78
2022/05/05 10:20:37;;;;;;;;;13.25;9.25;;;;;29.92;28.18;101817.72;4940252;28;45491;-78
2022/05/05 10:23:32;;;;;;;;;9.25;7.00;;;;;31.13;26.54;101827.56;4940019;28;45607;-78
2022/05/05 10:26:02;;;;;;;;;11.50;9.75;;;;;30.89;25.91;101828.16;4939241;28;45438;-78
2022/05/05 10:28:47;;;;;;;;;11.50;9.50;;;;;29.93;27.23;101821.28;4940354;28;45752;-78
2022/05/05 10:31:37;;;;;;;;;11.75;11.00;;;;;29.60;27.45;101829.31;4938274;28;45250;-78
2022/05/05 10:34:13;;;;;;;;;11.25;9.00;;;;;29.24;28.15;101827.63;4939745;28;45476;-77
2022/05/05 10:36:38;;;;;;;;;7.00;6.50;;;;;28.88;27.94;101827.78;4940608;28;45425;-78
2022/05/05 10:39:21;;;;;;;;;10.25;6.00;;;;;28.71;28.72;101818.22;4941207;28;45457;-78
2022/05/05 10:42:16;;;;;;;;;13.00;8.25;;;;;29.02;28.38;101832.31;4939628;28;45394;-78
2022/05/05 10:45:24;;;;;;;;;11.75;8.00;;;;;29.28;27.81;101825.34;4941989;28;45177;-78
2022/05/05 10:47:52;;;;;;;;;11.00;8.25;;;;;31.37;26.49;101827.91;4937840;28;46496;-77
2022/05/05 10:50:30;;;;;;;;;8.75;7.50;;;;;30.96;26.19;101829.00;4937496;28;45328;-77
2022/05/05 10:53:01;;;;;;;;;8.00;7.00;;;;;29.86;26.79;101821.28;4894669;28;45753;-78
2022/05/05 10:55:45;;;;;;;;;9.25;8.00;;;;;29.31;27.33;101828.53;4915802;28;46037;-78
2022/05/05 10:58:18;;;;;;;;;10.00;8.00;;;;;28.78;27.82;101819.13;4932684;28;46107;-78
2022/05/05 11:00:47;;;;;;;;;9.50;7.75;;;;;28.49;28.27;101816.56;4944280;28;46081;-78
2022/05/05 11:03:14;;;;;;;;;13.00;9.00;;;;;28.53;28.06;101818.69;4932181;28;45878;-78
2022/05/05 11:05:40;;;;;;;;;9.25;8.75;;;;;28.71;28.13;101817.38;4913572;28;45740;-78
2022/05/05 11:08:08;;;;;;;;;12.25;9.25;;;;;29.06;28.55;101829.16;4926651;28;46400;-78
2022/05/05 11:13:43;;;;;;;;;9.75;8.50;;;;;30.30;27.89;101814.50;4910499;28;45924;-79
2022/05/05 11:22:17;;;;;;;;;7.00;6.25;;;;;31.37;25.50;101797.88;4931958;28;45443;-78
2022/05/05 11:24:52;;;;;;;;;8.25;6.50;;;;;30.97;25.99;101811.56;4932050;28;45760;-78
2022/05/05 11:27:23;;;;;;;;;6.25;5.50;;;;;30.46;25.87;101809.47;4933168;28;45622;-77
2022/05/05 11:30:02;;;;;;;;;;;;;;;;;;;;;
2022/05/05 11:32:37;;;;;;;;;9.50;8.00;;;;;29.31;26.95;101805.91;4930644;28;73296;-78
2022/05/05 11:35:09;;;;;;;;;10.00;8.75;;;;;29.07;27.59;101815.38;4931615;28;45746;-77
2022/05/05 11:37:35;;;;;;;;;7.00;7.00;;;;;29.18;27.29;101801.22;4930786;28;45961;-78
2022/05/05 11:40:02;;;;;;;;;7.00;7.00;;;;;28.82;27.72;101812.28;4926945;28;45699;-78
2022/05/05 11:44:14;;;;;;;;;8.50;6.25;;;;;29.00;26.59;101807.19;4931942;28;45940;-78
2022/05/05 11:45:51;;;;;;;;;;;;;;;;;;;;;
2022/05/05 11:51:49;;;;;;;;;5.50;4.00;;;;;28.58;28.17;101805.38;4849775;28;46348;-77
2022/05/05 12:02:33;;;;;;;;;;;;;;;;;;;;;
2022/05/05 12:05:09;;;;;;;;;6.00;6.00;;;;;27.80;28.67;101808.91;4918231;28;74287;-77
2022/05/05 12:07:50;;;;;;;;;;;;;;;;;;;;;
2022/05/05 12:10:36;;;;;;;;;9.25;6.75;;;;;28.10;29.04;101812.38;4931977;28;69286;-77
2022/05/05 12:13:12;;;;;;;;;5.25;4.25;;;;;28.16;28.73;101805.31;4935354;28;45453;-77
2022/05/05 12:15:51;;;;;;;;;;;;;;;;;;;;;
2022/05/05 12:18:45;;;;;;;;;;;;;;;;;;;;;
2022/05/05 12:21:24;;;;;;;;;11.25;6.75;;;;;28.23;28.14;101809.81;4931854;28;68708;-77
2022/05/05 12:24:19;;;;;;;;;8.00;6.00;;;;;28.11;28.49;101808.63;4930999;28;45882;-77
2022/05/05 12:27:05;;;;;;;;;6.00;5.75;;;;;28.49;27.91;101784.81;4931238;28;45678;-77
2022/05/05 12:29:38;;;;;;;;;10.50;5.00;;;;;28.88;28.18;101792.44;4928061;28;45502;-75
2022/05/05 12:32:11;;;;;;;;;5.25;5.25;;;;;28.88;28.20;101791.59;4929812;28;46387;-78
2022/05/05 12:34:41;;;;;;;;;6.00;5.75;;;;;28.92;28.08;101793.75;4929761;28;45607;-77
2022/05/05 12:37:19;;;;;;;;;8.00;4.50;;;;;29.16;28.23;101789.69;4929116;28;47073;-77
2022/05/05 12:40:15;;;;;;;;;7.75;5.00;;;;;29.47;27.21;101783.00;4912774;28;45970;-77
2022/05/05 12:42:48;;;;;;;;;5.00;4.25;;;;;29.37;27.75;101791.53;4900932;28;45689;-77
2022/05/05 12:45:26;;;;;;;;;10.00;7.75;;;;;29.28;27.58;101795.41;4931982;28;46032;-77
2022/05/05 12:47:58;;;;;;;;;6.00;6.00;;;;;29.50;27.28;101796.22;4928129;28;46251;-77
2022/05/05 12:50:30;;;;;;;;;8.50;6.00;;;;;29.49;27.33;101795.38;4930297;28;45636;-77
2022/05/05 13:01:25;;;;;;;;;10.00;8.00;;;;;29.12;27.23;101790.31;4930463;28;46721;-76
2022/05/05 13:03:54;;;;;;;;;6.75;6.75;;;;;29.01;27.02;101778.94;4930223;28;45467;-76
2022/05/05 13:06:23;;;;;;;;;7.50;6.25;;;;;28.75;26.67;101794.22;4913419;28;45645;-76
2022/05/05 13:08:53;;;;;;;;;7.25;6.00;;;;;28.63;27.07;101783.88;4913951;28;47341;-76
2022/05/05 13:11:19;;;;;;;;;10.00;6.00;;;;;28.44;27.69;101794.56;4932738;28;45736;-76